createdAt,value
2022-10-30T00:00:04.710Z,73.80
2022-10-30T00:03:09.737Z,71.90
2022-10-30T00:05:54.940Z,70.20
2022-10-30T00:08:36.722Z,67.50
2022-10-30T00:11:10.774Z,63.10
2022-10-30T00:13:44.346Z,61.90
2022-10-30T00:16:19.972Z,59.90
2022-10-30T00:18:56.597Z,61.30
2022-10-30T00:21:27.277Z,58.70
2022-10-30T00:24:08.917Z,58.60
2022-10-30T00:26:43.649Z,56.20
2022-10-30T00:29:11.987Z,53.60
2022-10-30T00:31:50.594Z,54.30
2022-10-30T00:34:35.966Z,53.50
2022-10-30T00:37:12.933Z,52.60
2022-10-30T00:39:44.712Z,55.20
2022-10-30T00:42:32.878Z,55.70
2022-10-30T00:45:05.614Z,54.50
2022-10-30T00:48:08.659Z,54.00
2022-10-30T00:50:58.657Z,52.60
2022-10-30T00:53:35.522Z,52.30
2022-10-30T00:56:15.599Z,53.50
2022-10-30T00:59:07.878Z,53.40
2022-10-30T01:02:16.612Z,53.50
2022-10-30T01:05:00.352Z,55.30
2022-10-30T01:07:46.491Z,49.20
2022-10-30T01:10:22.312Z,52.70
2022-10-30T01:12:58.898Z,54.50
2022-10-30T01:15:39.059Z,51.80
2022-10-30T01:18:28.750Z,52.10
2022-10-30T01:22:03.617Z,56.00
2022-10-30T01:25:19.053Z,55.80
2022-10-30T01:28:17.736Z,64.00
2022-10-30T01:34:16.562Z,62.70
2022-10-30T01:37:45.706Z,59.60
2022-10-30T01:40:28.891Z,57.70
2022-10-30T01:43:02.763Z,56.00
2022-10-30T01:46:09.056Z,52.40
2022-10-30T01:49:07.188Z,52.50
2022-10-30T01:52:25.745Z,52.60
2022-10-30T01:58:42.560Z,47.40
2022-10-30T02:01:15.721Z,49.50
2022-10-30T02:04:07.910Z,46.80
2022-10-30T02:06:48.707Z,51.10
2022-10-30T02:09:20.274Z,49.90
2022-10-30T02:12:06.810Z,49.20
2022-10-30T02:14:49.848Z,51.10
2022-10-30T02:17:26.211Z,48.30
2022-10-30T02:19:55.406Z,46.50
2022-10-30T02:22:29.974Z,50.50
2022-10-30T02:25:22.273Z,49.30
2022-10-30T02:28:04.288Z,51.70
2022-10-30T02:31:07.021Z,48.80
2022-10-30T02:37:36.891Z,47.50
2022-10-30T02:40:17.380Z,48.60
2022-10-30T02:45:52.295Z,47.90
2022-10-30T02:48:58.339Z,46.90
2022-10-30T02:51:24.573Z,45.00
2022-10-30T02:53:52.404Z,44.40
2022-10-30T02:56:21.423Z,44.50
2022-10-30T02:58:57.080Z,45.50
2022-10-30T03:01:25.364Z,42.20
2022-10-30T03:04:02.052Z,43.20
2022-10-30T03:06:30.771Z,44.00
2022-10-30T03:08:59.105Z,44.30
2022-10-30T03:11:30.045Z,45.40
2022-10-30T03:13:58.097Z,45.40
2022-10-30T03:16:34.448Z,44.90
2022-10-30T03:19:23.378Z,45.80
2022-10-30T03:22:06.868Z,42.10
2022-10-30T03:24:46.802Z,41.90
2022-10-30T03:27:15.029Z,41.70
2022-10-30T03:29:43.181Z,46.20
2022-10-30T03:32:13.652Z,44.70
2022-10-30T03:34:50.463Z,43.00
2022-10-30T03:37:21.053Z,44.90
2022-10-30T03:39:49.948Z,44.00
2022-10-30T03:42:19.249Z,45.00
2022-10-30T03:44:50.439Z,43.20
2022-10-30T03:47:40.531Z,44.80
2022-10-30T03:50:27.543Z,44.10
2022-10-30T03:52:58.883Z,46.60
2022-10-30T03:55:51.238Z,43.90
2022-10-30T03:58:34.135Z,43.10
2022-10-30T04:01:07.343Z,45.50
2022-10-30T04:03:37.810Z,44.70
2022-10-30T04:06:10.276Z,46.80
2022-10-30T04:08:41.752Z,44.50
2022-10-30T04:11:10.924Z,48.40
2022-10-30T04:13:41.964Z,46.10
2022-10-30T04:16:11.794Z,43.60
2022-10-30T04:18:59.702Z,44.90
2022-10-30T04:21:55.587Z,44.90
2022-10-30T04:24:43.921Z,46.10
2022-10-30T04:27:23.725Z,47.20
2022-10-30T04:29:56.165Z,47.40
2022-10-30T04:32:26.619Z,50.10
2022-10-30T04:35:39.683Z,48.60
2022-10-30T04:39:03.339Z,48.40
2022-10-30T04:45:58.940Z,51.20
2022-10-30T04:48:29.259Z,48.10
2022-10-30T04:51:03.491Z,49.30
2022-10-30T04:53:38.993Z,47.80
2022-10-30T04:56:11.542Z,49.20
2022-10-30T04:59:26.803Z,49.50
2022-10-30T05:01:55.411Z,45.70
2022-10-30T05:04:45.969Z,41.60
2022-10-30T05:07:18.971Z,44.60
2022-10-30T05:10:02.790Z,42.90
2022-10-30T05:12:46.441Z,46.20
2022-10-30T05:15:14.722Z,43.80
2022-10-30T05:17:45.986Z,45.90
2022-10-30T05:20:18.800Z,45.70
2022-10-30T05:22:57.118Z,43.30
2022-10-30T05:25:28.434Z,40.70
2022-10-30T05:28:06.622Z,41.90
2022-10-30T05:30:40.176Z,41.80
2022-10-30T05:33:15.878Z,41.70
2022-10-30T05:35:46.389Z,43.60
2022-10-30T05:38:14.355Z,43.10
2022-10-30T05:40:46.604Z,43.30
2022-10-30T05:43:14.688Z,45.10
2022-10-30T05:45:44.574Z,44.90
2022-10-30T05:48:16.200Z,45.40
2022-10-30T05:50:54.379Z,41.90
2022-10-30T05:53:34.192Z,42.30
2022-10-30T05:56:07.122Z,39.70
2022-10-30T05:58:40.567Z,42.60
2022-10-30T06:01:11.243Z,44.00
2022-10-30T06:03:45.355Z,40.50
2022-10-30T06:06:24.391Z,41.50
2022-10-30T06:09:07.389Z,45.10
2022-10-30T06:11:54.093Z,49.80
2022-10-30T06:14:31.954Z,53.60
2022-10-30T06:17:00.172Z,50.40
2022-10-30T06:19:27.766Z,51.00
2022-10-30T06:22:14.439Z,51.50
2022-10-30T06:25:00.876Z,56.30
2022-10-30T06:28:15.976Z,55.20
2022-10-30T06:30:57.099Z,54.10
2022-10-30T06:33:27.721Z,55.40
2022-10-30T06:36:06.400Z,53.90
2022-10-30T06:38:47.099Z,53.30
2022-10-30T06:41:30.531Z,52.50
2022-10-30T06:44:35.299Z,52.30
2022-10-30T06:47:17.254Z,56.10
2022-10-30T06:50:11.428Z,52.30
2022-10-30T06:52:40.035Z,53.20
2022-10-30T06:55:21.965Z,56.50
2022-10-30T06:58:15.634Z,60.40
2022-10-30T07:01:30.388Z,64.70
2022-10-30T07:04:32.469Z,74.90
2022-10-30T07:07:31.212Z,76.70
2022-10-30T07:20:30.017Z,66.30
2022-10-30T07:23:14.122Z,58.80
2022-10-30T08:14:27.508Z,37.80
2022-10-30T08:18:46.124Z,36.00
2022-10-30T08:22:14.840Z,37.70
2022-10-30T08:26:01.829Z,36.20
2022-10-30T08:43:07.560Z,30.00
2022-10-30T08:46:18.406Z,43.70
2022-10-30T08:48:52.866Z,36.10
2022-10-30T08:51:35.548Z,34.80
2022-10-30T08:56:38.240Z,27.70
2022-10-30T08:59:17.221Z,27.80
2022-10-30T09:02:06.110Z,29.20
2022-10-30T09:08:54.997Z,28.80
2022-10-30T09:12:43.283Z,31.30
2022-10-30T09:18:19.073Z,34.40
2022-10-30T09:20:49.964Z,34.30
2022-10-30T09:23:44.547Z,27.80
2022-10-30T09:26:55.587Z,27.80
2022-10-30T09:29:42.235Z,26.70
2022-10-30T09:32:51.195Z,28.70
2022-10-30T09:35:26.566Z,31.60
2022-10-30T09:37:58.338Z,32.90
2022-10-30T09:41:37.538Z,31.60
2022-10-30T09:49:14.956Z,32.30
2022-10-30T09:52:13.861Z,33.30
2022-10-30T09:55:09.967Z,32.70
2022-10-30T09:58:28.474Z,34.10
2022-10-30T10:09:57.137Z,32.20
2022-10-30T10:23:39.360Z,41.40
2022-10-30T12:27:42.128Z,20.00
2022-10-30T12:32:25.160Z,26.50
2022-10-30T12:40:11.831Z,22.40
2022-10-30T13:05:06.761Z,23.30
2022-10-30T13:17:26.156Z,22.60
2022-10-30T13:24:33.961Z,26.00
2022-10-30T13:27:26.997Z,25.10
2022-10-30T13:30:48.284Z,41.10
2022-10-30T13:34:22.695Z,23.90
2022-10-30T14:21:07.164Z,21.10
2022-10-30T14:25:04.412Z,22.20
2022-10-30T14:28:22.995Z,25.20
2022-10-30T16:20:23.422Z,51.30
2022-10-30T16:23:07.984Z,51.90
2022-10-30T16:26:00.542Z,46.00
2022-10-30T16:29:36.684Z,57.60
2022-10-30T16:36:34.965Z,56.10
2022-10-30T16:39:27.331Z,50.80
2022-10-30T16:42:14.363Z,85.90
2022-10-30T16:45:30.840Z,66.30
2022-10-30T16:48:26.138Z,77.40
2022-10-30T16:51:22.500Z,76.50
2022-10-30T16:54:03.239Z,67.40
2022-10-30T17:04:03.815Z,67.80
2022-10-30T17:07:28.704Z,69.10
2022-10-30T17:10:46.811Z,69.20
2022-10-30T17:14:00.557Z,100.30
2022-10-30T17:16:42.898Z,86.30
2022-10-30T17:20:18.620Z,83.50
2022-10-30T17:23:55.784Z,75.00
2022-10-30T17:26:41.960Z,75.00
2022-10-30T17:30:30.221Z,68.10
2022-10-30T17:33:46.324Z,65.60
2022-10-30T17:36:23.804Z,75.90
2022-10-30T17:42:02.882Z,92.60
2022-10-30T17:44:48.777Z,89.50
2022-10-30T17:48:11.311Z,115.50
2022-10-30T17:50:54.173Z,94.60
2022-10-30T17:53:38.739Z,109.50
2022-10-30T18:00:32.988Z,111.90
2022-10-30T18:03:28.387Z,121.80
2022-10-30T18:06:03.848Z,119.80
2022-10-30T18:08:49.782Z,107.40
2022-10-30T18:11:41.949Z,107.10
2022-10-30T18:14:17.545Z,111.10
2022-10-30T18:16:45.929Z,108.10
2022-10-30T18:19:30.038Z,103.90
2022-10-30T18:22:06.377Z,103.50
2022-10-30T18:24:42.961Z,99.60
2022-10-30T18:32:28.467Z,95.70
2022-10-30T18:34:55.887Z,97.80
2022-10-30T18:37:23.323Z,97.70
2022-10-30T18:39:50.731Z,100.50
2022-10-30T18:42:18.262Z,101.50
2022-10-30T18:44:45.714Z,102.40
2022-10-30T18:47:20.639Z,104.70
2022-10-30T18:49:49.222Z,105.40
2022-10-30T18:52:16.536Z,102.80
2022-10-30T18:54:44.554Z,98.50
2022-10-30T18:57:13.056Z,101.70
2022-10-30T18:59:40.570Z,105.60
2022-10-30T19:02:23.628Z,103.50
2022-10-30T19:04:51.135Z,106.20
2022-10-30T19:07:18.646Z,103.50
2022-10-30T19:09:46.044Z,104.80
2022-10-30T19:12:13.744Z,105.30
2022-10-30T19:14:41.625Z,102.50
2022-10-30T19:17:09.132Z,100.70
2022-10-30T19:19:36.547Z,103.50
2022-10-30T19:22:03.987Z,99.20
2022-10-30T19:24:31.386Z,101.40
2022-10-30T19:26:58.747Z,103.90
2022-10-30T19:29:26.155Z,104.00
2022-10-30T19:31:53.708Z,103.90
2022-10-30T19:34:21.102Z,107.20
2022-10-30T19:36:48.557Z,111.80
2022-10-30T19:39:18.767Z,107.40
2022-10-30T19:41:46.945Z,106.90
2022-10-30T19:44:14.521Z,104.10
2022-10-30T19:46:41.965Z,106.30
2022-10-30T19:49:20.527Z,105.40
2022-10-30T19:51:48.304Z,104.00
2022-10-30T19:54:15.968Z,105.40
2022-10-30T19:56:43.436Z,106.50
2022-10-30T19:59:15.237Z,103.80
2022-10-30T20:01:43.980Z,109.70
2022-10-30T20:04:12.176Z,109.10
2022-10-30T20:06:39.579Z,107.20
2022-10-30T20:09:10.980Z,113.00
2022-10-30T20:11:38.434Z,114.00
2022-10-30T20:14:05.814Z,119.10
2022-10-30T20:16:33.227Z,127.80
2022-10-30T20:19:00.732Z,109.90
2022-10-30T20:21:28.260Z,107.30
2022-10-30T20:23:55.686Z,137.40
2022-10-30T20:26:28.971Z,126.40
2022-10-30T20:28:59.039Z,125.80
2022-10-30T20:31:27.389Z,109.70
2022-10-30T20:33:54.803Z,120.00
2022-10-30T20:36:22.261Z,121.90
2022-10-30T20:38:49.778Z,123.70
2022-10-30T20:41:24.146Z,126.10
2022-10-30T20:43:51.838Z,125.80
2022-10-30T20:46:20.139Z,112.10
2022-10-30T20:48:47.777Z,126.40
2022-10-30T20:51:15.353Z,143.30
2022-10-30T20:53:42.912Z,143.40
2022-10-30T20:56:11.055Z,143.50
2022-10-30T20:58:39.571Z,130.10
2022-10-30T21:01:07.142Z,131.20
2022-10-30T21:03:34.597Z,124.10
2022-10-30T21:06:02.118Z,112.80
2022-10-30T21:08:32.593Z,103.70
2022-10-30T21:11:08.286Z,93.20
2022-10-30T21:13:36.597Z,92.20
2022-10-30T21:16:07.964Z,93.20
2022-10-30T21:18:36.066Z,99.20
2022-10-30T21:21:07.654Z,93.30
2022-10-30T21:23:35.023Z,93.90
2022-10-30T21:26:06.374Z,95.60
2022-10-30T21:28:33.864Z,96.40
2022-10-30T21:31:08.695Z,91.50
2022-10-30T21:33:37.556Z,91.30
2022-10-30T21:36:13.091Z,83.90
2022-10-30T21:38:42.698Z,91.60
2022-10-30T21:41:13.066Z,89.20
2022-10-30T21:43:40.917Z,89.20
2022-10-30T21:46:11.789Z,92.50
2022-10-30T21:48:39.557Z,82.90
2022-10-30T21:51:16.644Z,79.50
2022-10-30T21:53:45.424Z,77.60
2022-10-30T21:56:20.819Z,79.30
2022-10-30T21:58:48.651Z,78.70
2022-10-30T22:01:26.105Z,81.90
2022-10-30T22:03:54.122Z,79.00
2022-10-30T22:06:22.103Z,74.10
2022-10-30T22:08:53.043Z,66.70
2022-10-30T22:11:23.284Z,67.80
2022-10-30T22:13:59.938Z,63.90
2022-10-30T22:16:30.501Z,63.30
2022-10-30T22:18:58.826Z,62.80
2022-10-30T22:21:27.326Z,59.90
2022-10-30T22:23:54.687Z,58.70
2022-10-30T22:26:23.346Z,58.70
2022-10-30T22:28:58.670Z,60.00
2022-10-30T22:31:29.399Z,59.00
2022-10-30T22:34:00.175Z,53.40
2022-10-30T22:36:32.599Z,52.50
2022-10-30T22:39:11.802Z,54.50
2022-10-30T22:41:40.384Z,55.30
2022-10-30T22:44:13.701Z,55.80
2022-10-30T22:46:41.394Z,54.80
2022-10-30T22:49:09.111Z,54.10
2022-10-30T22:51:38.390Z,53.80
2022-10-30T22:54:14.038Z,54.90
2022-10-30T22:56:42.287Z,56.40
2022-10-30T22:59:12.792Z,55.40
2022-10-30T23:01:41.364Z,54.70
2022-10-30T23:04:11.707Z,50.50
2022-10-30T23:06:39.170Z,49.50
2022-10-30T23:09:21.548Z,49.80
2022-10-30T23:11:49.490Z,48.20
2022-10-30T23:14:18.742Z,50.50
2022-10-30T23:16:46.153Z,50.20
2022-10-30T23:19:13.547Z,49.90
2022-10-30T23:21:41.008Z,50.10
2022-10-30T23:24:08.489Z,51.10
2022-10-30T23:26:36.154Z,50.00
2022-10-30T23:29:03.762Z,45.60
2022-10-30T23:31:39.200Z,45.00
2022-10-30T23:34:11.795Z,44.50
2022-10-30T23:36:40.321Z,45.80
2022-10-30T23:39:13.301Z,44.70
2022-10-30T23:41:41.230Z,44.60
2022-10-30T23:44:13.390Z,45.10
2022-10-30T23:46:40.748Z,46.40
2022-10-30T23:49:08.149Z,45.90
2022-10-30T23:51:35.672Z,46.30
2022-10-30T23:54:03.896Z,50.00
2022-10-30T23:56:31.435Z,49.00
2022-10-30T23:58:59.698Z,48.30
